Maersk Dayton — DDSC2 — position and weather

sailwx.info

Track history (hours):
 
Tides and Currents Weather Stations Pressure Air Temp Water Temp Dewpoint Dewpoint Depression Visibility Wind Speed Wind Dir Waves Ship Positions

Maersk Dayton

Last reported at 2015-May-23 06:00 UTC. Time now 2015-May-28 02:02 UTC.
Position N 47°06' W 021°12'.

Length 281 m; beam 32.2 m; draft 12.5 m.

Type: Cargo ship. MMSI: 218024000.

Wind from 220 at 13 knots

Waves 1.0 meters (3 feet), 99 second period

Barometer 1031.5 mb
Air temperature 15.0 ° C
Visibility: greater than 0.3 NM
Dewpoint 14.2 ° C
Water temperature 13.9 ° C

Date/timePositionNaut miles runAvg speedWind from/ knotsBaromVisibWave heightAir tempDewpointWater temp
2015-May-23 06:00N 47°06' W 021°12'39416.4 220 / 131031.5 0.3 1.015.014.213.9
2015-May-22 06:00N 49°00' W 011°48'25115.9 250 / 151030.0 0.3 1.512.511.611.7
2015-May-21 14:15N 49°46' W 005°29'7916.8
2015-May-21 09:33N 49°56' W 003°28'1514.4
2015-May-21 08:32N 49°57' W 003°05'1414.6
2015-May-21 07:33N 50°01' W 002°43'2416.0
2015-May-21 06:04N 50°07' W 002°08'3018.9
2015-May-21 04:31N 50°15' W 001°23'1919.7
2015-May-21 03:33N 50°20' W 000°55'1918.9
2015-May-21 02:33N 50°26' W 000°27'1817.3
2015-May-21 01:32N 50°32' W 000°00'1616.2
2015-May-21 00:33N 50°34' E 000°24'1515.1
2015-May-20 23:33N 50°40' E 000°46'1515.5
2015-May-20 22:33N 50°49' E 001°06'1817.7
2015-May-20 21:34N 51°01' E 001°27'1919.4
2015-May-20 20:33N 51°15' E 001°48'1514.5
2015-May-20 19:34N 51°23' E 002°07'1616.3
2015-May-20 18:34N 51°23' E 002°33'1211.5
2015-May-20 17:33N 51°22' E 002°52'1817.7
2015-May-20 16:33N 51°24' E 003°20'1312.6
2015-May-20 15:34N 51°26' E 003°40'1010.2
2015-May-20 14:33N 51°22' E 003°54'7 6.5
2015-May-20 13:33N 51°22' E 004°05'8 8.0
2015-May-20 12:34N 51°19' E 004°16'1 1.1
2015-May-20 11:33N 51°18' E 004°16'0 0.0
2015-May-20 10:31N 51°18' E 004°16'0 0.0
2015-May-20 09:31N 51°18' E 004°16'0 0.0
2015-May-20 08:31N 51°18' E 004°16'0 0.0
2015-May-20 07:32N 51°18' E 004°16'0 0.0
2015-May-20 06:32N 51°18' E 004°16'0 0.0
2015-May-20 05:32N 51°18' E 004°16'0 0.0
2015-May-20 04:32N 51°18' E 004°16'0 0.0
2015-May-20 03:32N 51°18' E 004°16'0 0.0
2015-May-20 02:32N 51°18' E 004°16'0 0.0
2015-May-20 01:32N 51°18' E 004°16'0 0.0
2015-May-20 00:32N 51°18' E 004°16'0 0.0
2015-May-19 23:32N 51°18' E 004°16'0 0.0
2015-May-19 22:33N 51°18' E 004°16'0 0.0
2015-May-19 21:33N 51°18' E 004°16'0 0.0
2015-May-19 20:33N 51°18' E 004°16'0 0.0
2015-May-19 19:33N 51°18' E 004°16'0 0.0
2015-May-19 18:33N 51°18' E 004°16'0 0.0
2015-May-19 17:32N 51°18' E 004°16'0 0.0
2015-May-19 16:32N 51°18' E 004°16'0 0.0
2015-May-19 15:32N 51°18' E 004°16'0 0.0
2015-May-19 14:32N 51°18' E 004°16'0 0.0
2015-May-19 13:32N 51°18' E 004°16'0 0.0
2015-May-19 12:33N 51°18' E 004°16'5 4.7
2015-May-19 11:33N 51°22' E 004°13'1010.0
2015-May-19 10:34N 51°25' E 003°58'1010.1
2015-May-19 09:34N 51°26' E 003°42'1414.2
2015-May-19 08:33N 51°24' E 003°19'1716.5
2015-May-19 07:33N 51°22' E 002°53'1010.0
2015-May-19 06:34N 51°22' E 002°37'1010.1
2015-May-19 05:34N 51°19' E 002°21'10 9.7
2015-May-19 04:33N 51°19' E 002°05'10 9.7
2015-May-19 03:34N 51°26' E 001°56'10 9.6
2015-May-19 02:33N 51°35' E 001°48'8 8.5
2015-May-19 01:34N 51°43' E 001°46'7 7.2
2015-May-19 00:33N 51°50' E 001°44'7 7.4
2015-May-18 23:34N 51°48' E 001°32'1616.0
2015-May-18 22:34N 51°35' E 001°16'1514.7
2015-May-18 21:34N 51°29' E 000°55'1414.3
2015-May-18 20:33N 51°30' E 000°32'1 1.4
2015-May-18 19:34N 51°30' E 000°30'0 0.0
2015-May-18 18:32N 51°30' E 000°30'0 0.0
2015-May-18 17:32N 51°30' E 000°30'0 0.0
2015-May-18 16:32N 51°30' E 000°30'0 0.0
2015-May-18 15:30N 51°30' E 000°30'0 0.0
2015-May-18 14:33N 51°30' E 000°30'0 0.0
2015-May-18 13:31N 51°30' E 000°30'0 0.0
2015-May-18 12:31N 51°30' E 000°30'0 0.0
2015-May-18 11:31N 51°30' E 000°30'0 0.0
2015-May-18 10:31N 51°30' E 000°30'0 0.0
2015-May-18 09:31N 51°30' E 000°30'0 0.0
2015-May-18 08:33N 51°30' E 000°30'0 0.0
2015-May-18 07:31N 51°30' E 000°30'0 0.0
2015-May-18 06:32N 51°30' E 000°30'0 0.0
2015-May-18 05:34N 51°30' E 000°30'0 0.0
2015-May-18 04:33N 51°30' E 000°30'4 3.8
2015-May-18 03:33N 51°30' E 000°36'1312.7
2015-May-18 02:34N 51°29' E 000°56'1414.5
2015-May-18 01:34N 51°36' E 001°17'1414.4
2015-May-18 00:34N 51°47' E 001°32'7 7.5
2015-May-17 23:33N 51°52' E 001°41'7 6.9
2015-May-17 22:33N 51°58' E 001°47'1010.1
2015-May-17 21:34N 52°06' E 001°57'1211.6
2015-May-17 20:34N 52°13' E 002°12'1311.5
2015-May-17 19:28N 52°21' E 002°28'1010.9
2015-May-17 18:33N 52°27' E 002°40'55 9.1
2015-May-17 12:29N 52°58' E 003°56'910.0
2015-May-17 11:34N 53°03' E 004°09'1210.6
2015-May-17 10:24N 53°12' E 004°24'1411.0
2015-May-17 09:08N 53°24' E 004°35'610.3
2015-May-17 08:33N 53°29' E 004°41'1010.4
2015-May-17 07:34N 53°33' E 004°57'10 9.8
2015-May-17 06:34N 53°37' E 005°12'9 8.7
2015-May-17 05:34N 53°39' E 005°26'8 8.4
2015-May-17 04:34N 53°42' E 005°40'9 9.0
2015-May-17 03:33N 53°45' E 005°54'1010.0
2015-May-17 02:33N 53°48' E 006°10'3210.4
2015-May-16 23:30N 53°56' E 007°02'9 9.7
2015-May-16 22:34N 53°58' E 007°17'9 9.2
2015-May-16 21:34N 54°00' E 007°33'9 8.8
2015-May-16 20:33N 54°01' E 007°47'9 8.8
2015-May-16 19:34N 54°01' E 008°02'9 8.6
2015-May-16 18:33N 54°00' E 008°17'1313.0
2015-May-16 17:33N 53°57' E 008°38'1414.4
2015-May-16 16:33N 53°51' E 009°01'1312.7
2015-May-16 15:34N 53°49' E 009°22'1414.1
2015-May-16 14:34N 53°37' E 009°33'1010.3
2015-May-16 13:33N 53°33' E 009°50'4 3.5
2015-May-16 12:32N 53°32' E 009°55'0 0.0
2015-May-16 11:34N 53°32' E 009°55'0 0.0
2015-May-16 10:31N 53°32' E 009°55'0 0.0
2015-May-16 09:31N 53°32' E 009°55'0 0.0
2015-May-16 08:31N 53°32' E 009°55'0 0.0
2015-May-16 07:29N 53°32' E 009°55'0 0.0
2015-May-16 06:24N 53°32' E 009°55'0 0.0
2015-May-16 05:27N 53°32' E 009°55'0 0.0
2015-May-16 04:33N 53°32' E 009°55'0 0.0
2015-May-16 03:32N 53°32' E 009°55'0 0.0
2015-May-16 02:33N 53°32' E 009°55'0 0.0
2015-May-16 01:33N 53°32' E 009°55'0 0.0
2015-May-16 00:33N 53°32' E 009°55'0 0.0
2015-May-15 23:34N 53°32' E 009°55'0 0.0
2015-May-15 22:33N 53°32' E 009°55'0 0.0
2015-May-15 21:33N 53°32' E 009°55'0 0.0
2015-May-15 20:33N 53°32' E 009°55'0 0.0
2015-May-15 19:29N 53°32' E 009°55'0 0.0
2015-May-15 18:33N 53°32' E 009°55'0 0.0
2015-May-15 17:33N 53°32' E 009°55'0 0.0
2015-May-15 16:33N 53°32' E 009°55'0 0.0
2015-May-15 15:32N 53°32' E 009°55'0 0.0
2015-May-15 14:33N 53°32' E 009°55'0 0.0
2015-May-15 13:33N 53°32' E 009°55'0 0.0
2015-May-15 12:32N 53°32' E 009°55'4 4.2
2015-May-15 11:33N 53°33' E 009°49'1110.9
2015-May-15 10:33N 53°38' E 009°32'1313.3
2015-May-15 09:34N 53°49' E 009°22'1211.7
2015-May-15 08:34N 53°52' E 009°02'1312.7
2015-May-15 07:33N 53°54' E 008°41'1413.9
2015-May-15 06:33N 53°59' E 008°19'10 9.9
2015-May-15 05:33N 53°58' E 008°02'1313.1
2015-May-15 04:33N 53°55' E 007°41'1413.7
2015-May-15 03:33N 53°52' E 007°18'3517.4
2015-May-15 01:33N 53°45' E 006°20'1717.5
2015-May-15 00:33N 53°40' E 005°52'1817.6
2015-May-14 23:33N 53°34' E 005°24'1717.4
2015-May-14 22:33N 53°27' E 004°58'1616.0
2015-May-14 21:33N 53°16' E 004°38'1717.2
2015-May-14 20:33N 53°02' E 004°21'1716.8
2015-May-14 19:33N 52°46' E 004°11'1716.6
2015-May-14 18:33N 52°33' E 003°55'1616.4
2015-May-14 17:33N 52°16' E 003°52'1414.4
2015-May-14 16:33N 52°02' E 003°53'1211.6
2015-May-14 15:33N 51°57' E 004°10'9 9.0
2015-May-14 14:33N 51°54' E 004°24'1 0.9
2015-May-14 13:31N 51°53' E 004°24'0 0.0
2015-May-14 12:31N 51°53' E 004°24'0 0.0
2015-May-14 11:31N 51°53' E 004°24'0 0.0
2015-May-14 10:31N 51°53' E 004°24'0 0.0
2015-May-14 09:31N 51°53' E 004°24'0 0.0
2015-May-14 08:31N 51°53' E 004°24'0 0.0
2015-May-14 07:31N 51°53' E 004°24'0 0.0
2015-May-14 06:31N 51°53' E 004°24'0 0.0
2015-May-14 05:31N 51°53' E 004°24'0 0.0
2015-May-14 04:31N 51°53' E 004°24'0 0.0
2015-May-14 03:31N 51°53' E 004°24'0 0.0
2015-May-14 02:31N 51°53' E 004°24'0 0.0
2015-May-14 01:31N 51°53' E 004°24'0 0.0
2015-May-14 00:31N 51°53' E 004°24'0 0.0
2015-May-13 23:31N 51°53' E 004°24'0 0.0
2015-May-13 22:31N 51°53' E 004°24'0 0.0
2015-May-13 21:31N 51°53' E 004°24'0 0.0
2015-May-13 20:31N 51°53' E 004°24'0 0.0
2015-May-13 18:31N 51°53' E 004°24'0 0.0
2015-May-13 17:31N 51°53' E 004°24'0 0.0
2015-May-13 16:31N 51°53' E 004°24'0 0.0
2015-May-13 15:33N 51°53' E 004°24'1 1.4
2015-May-13 14:33N 51°54' E 004°23'7 6.6
2015-May-13 13:33N 51°56' E 004°12'9 9.4
2015-May-13 12:33N 52°00' E 003°59'1211.5
2015-May-13 11:33N 51°58' E 003°40'1313.1
2015-May-13 10:32N 51°54' E 003°20'1616.7
2015-May-13 09:33N 51°50' E 002°54'1818.2
2015-May-13 08:33N 51°39' E 002°30'1818.3
2015-May-13 07:33N 51°25' E 002°12'1817.6
2015-May-13 06:33N 51°11' E 001°54'  
Track history (hours):
 
Tides and Currents Weather Stations Pressure Air Temp Water Temp Dewpoint Dewpoint Depression Visibility Wind Speed Wind Dir Waves Ship Positions

Maersk Dayton

Last reported at 2015-May-23 06:00 UTC. Time now 2015-May-28 02:02 UTC.
Position N 47°06' W 021°12'.

Length 281 m; beam 32.2 m; draft 12.5 m.

Type: Cargo ship. MMSI: 218024000.

Wind from 220 at 13 knots

Waves 1.0 meters (3 feet), 99 second period

Barometer 1031.5 mb
Air temperature 15.0 ° C
Visibility: greater than 0.3 NM
Dewpoint 14.2 ° C
Water temperature 13.9 ° C

Date/timePositionNaut miles runAvg speedWind from/ knotsBaromVisibWave heightAir tempDewpointWater temp
2015-May-23 06:00N 47°06' W 021°12'39416.4 220 / 131031.5 0.3 1.015.014.213.9
2015-May-22 06:00N 49°00' W 011°48'25115.9 250 / 151030.0 0.3 1.512.511.611.7
2015-May-21 14:15N 49°46' W 005°29'7916.8
2015-May-21 09:33N 49°56' W 003°28'1514.4
2015-May-21 08:32N 49°57' W 003°05'1414.6
2015-May-21 07:33N 50°01' W 002°43'2416.0
2015-May-21 06:04N 50°07' W 002°08'3018.9
2015-May-21 04:31N 50°15' W 001°23'1919.7
2015-May-21 03:33N 50°20' W 000°55'1918.9
2015-May-21 02:33N 50°26' W 000°27'1817.3
2015-May-21 01:32N 50°32' W 000°00'1616.2
2015-May-21 00:33N 50°34' E 000°24'1515.1
2015-May-20 23:33N 50°40' E 000°46'1515.5
2015-May-20 22:33N 50°49' E 001°06'1817.7
2015-May-20 21:34N 51°01' E 001°27'1919.4
2015-May-20 20:33N 51°15' E 001°48'1514.5
2015-May-20 19:34N 51°23' E 002°07'1616.3
2015-May-20 18:34N 51°23' E 002°33'1211.5
2015-May-20 17:33N 51°22' E 002°52'1817.7
2015-May-20 16:33N 51°24' E 003°20'1312.6
2015-May-20 15:34N 51°26' E 003°40'1010.2
2015-May-20 14:33N 51°22' E 003°54'7 6.5
2015-May-20 13:33N 51°22' E 004°05'8 8.0
2015-May-20 12:34N 51°19' E 004°16'1 1.1
2015-May-20 11:33N 51°18' E 004°16'0 0.0
2015-May-20 10:31N 51°18' E 004°16'0 0.0
2015-May-20 09:31N 51°18' E 004°16'0 0.0
2015-May-20 08:31N 51°18' E 004°16'0 0.0
2015-May-20 07:32N 51°18' E 004°16'0 0.0
2015-May-20 06:32N 51°18' E 004°16'0 0.0
2015-May-20 05:32N 51°18' E 004°16'0 0.0
2015-May-20 04:32N 51°18' E 004°16'0 0.0
2015-May-20 03:32N 51°18' E 004°16'0 0.0
2015-May-20 02:32N 51°18' E 004°16'0 0.0
2015-May-20 01:32N 51°18' E 004°16'0 0.0
2015-May-20 00:32N 51°18' E 004°16'0 0.0
2015-May-19 23:32N 51°18' E 004°16'0 0.0
2015-May-19 22:33N 51°18' E 004°16'0 0.0
2015-May-19 21:33N 51°18' E 004°16'0 0.0
2015-May-19 20:33N 51°18' E 004°16'0 0.0
2015-May-19 19:33N 51°18' E 004°16'0 0.0
2015-May-19 18:33N 51°18' E 004°16'0 0.0
2015-May-19 17:32N 51°18' E 004°16'0 0.0
2015-May-19 16:32N 51°18' E 004°16'0 0.0
2015-May-19 15:32N 51°18' E 004°16'0 0.0
2015-May-19 14:32N 51°18' E 004°16'0 0.0
2015-May-19 13:32N 51°18' E 004°16'0 0.0
2015-May-19 12:33N 51°18' E 004°16'5 4.7
2015-May-19 11:33N 51°22' E 004°13'1010.0
2015-May-19 10:34N 51°25' E 003°58'1010.1
2015-May-19 09:34N 51°26' E 003°42'1414.2
2015-May-19 08:33N 51°24' E 003°19'1716.5
2015-May-19 07:33N 51°22' E 002°53'1010.0
2015-May-19 06:34N 51°22' E 002°37'1010.1
2015-May-19 05:34N 51°19' E 002°21'10 9.7
2015-May-19 04:33N 51°19' E 002°05'10 9.7
2015-May-19 03:34N 51°26' E 001°56'10 9.6
2015-May-19 02:33N 51°35' E 001°48'8 8.5
2015-May-19 01:34N 51°43' E 001°46'7 7.2
2015-May-19 00:33N 51°50' E 001°44'7 7.4
2015-May-18 23:34N 51°48' E 001°32'1616.0
2015-May-18 22:34N 51°35' E 001°16'1514.7
2015-May-18 21:34N 51°29' E 000°55'1414.3
2015-May-18 20:33N 51°30' E 000°32'1 1.4
2015-May-18 19:34N 51°30' E 000°30'0 0.0
2015-May-18 18:32N 51°30' E 000°30'0 0.0
2015-May-18 17:32N 51°30' E 000°30'0 0.0
2015-May-18 16:32N 51°30' E 000°30'0 0.0
2015-May-18 15:30N 51°30' E 000°30'0 0.0
2015-May-18 14:33N 51°30' E 000°30'0 0.0
2015-May-18 13:31N 51°30' E 000°30'0 0.0
2015-May-18 12:31N 51°30' E 000°30'0 0.0
2015-May-18 11:31N 51°30' E 000°30'0 0.0
2015-May-18 10:31N 51°30' E 000°30'0 0.0
2015-May-18 09:31N 51°30' E 000°30'0 0.0
2015-May-18 08:33N 51°30' E 000°30'0 0.0
2015-May-18 07:31N 51°30' E 000°30'0 0.0
2015-May-18 06:32N 51°30' E 000°30'0 0.0
2015-May-18 05:34N 51°30' E 000°30'0 0.0
2015-May-18 04:33N 51°30' E 000°30'4 3.8
2015-May-18 03:33N 51°30' E 000°36'1312.7
2015-May-18 02:34N 51°29' E 000°56'1414.5
2015-May-18 01:34N 51°36' E 001°17'1414.4
2015-May-18 00:34N 51°47' E 001°32'7 7.5
2015-May-17 23:33N 51°52' E 001°41'7 6.9
2015-May-17 22:33N 51°58' E 001°47'1010.1
2015-May-17 21:34N 52°06' E 001°57'1211.6
2015-May-17 20:34N 52°13' E 002°12'1311.5
2015-May-17 19:28N 52°21' E 002°28'1010.9
2015-May-17 18:33N 52°27' E 002°40'55 9.1
2015-May-17 12:29N 52°58' E 003°56'910.0
2015-May-17 11:34N 53°03' E 004°09'1210.6
2015-May-17 10:24N 53°12' E 004°24'1411.0
2015-May-17 09:08N 53°24' E 004°35'610.3
2015-May-17 08:33N 53°29' E 004°41'1010.4
2015-May-17 07:34N 53°33' E 004°57'10 9.8
2015-May-17 06:34N 53°37' E 005°12'9 8.7
2015-May-17 05:34N 53°39' E 005°26'8 8.4
2015-May-17 04:34N 53°42' E 005°40'9 9.0
2015-May-17 03:33N 53°45' E 005°54'1010.0
2015-May-17 02:33N 53°48' E 006°10'3210.4
2015-May-16 23:30N 53°56' E 007°02'9 9.7
2015-May-16 22:34N 53°58' E 007°17'9 9.2
2015-May-16 21:34N 54°00' E 007°33'9 8.8
2015-May-16 20:33N 54°01' E 007°47'9 8.8
2015-May-16 19:34N 54°01' E 008°02'9 8.6
2015-May-16 18:33N 54°00' E 008°17'1313.0
2015-May-16 17:33N 53°57' E 008°38'1414.4
2015-May-16 16:33N 53°51' E 009°01'1312.7
2015-May-16 15:34N 53°49' E 009°22'1414.1
2015-May-16 14:34N 53°37' E 009°33'1010.3
2015-May-16 13:33N 53°33' E 009°50'4 3.5
2015-May-16 12:32N 53°32' E 009°55'0 0.0
2015-May-16 11:34N 53°32' E 009°55'0 0.0
2015-May-16 10:31N 53°32' E 009°55'0 0.0
2015-May-16 09:31N 53°32' E 009°55'0 0.0
2015-May-16 08:31N 53°32' E 009°55'0 0.0
2015-May-16 07:29N 53°32' E 009°55'0 0.0
2015-May-16 06:24N 53°32' E 009°55'0 0.0
2015-May-16 05:27N 53°32' E 009°55'0 0.0
2015-May-16 04:33N 53°32' E 009°55'0 0.0
2015-May-16 03:32N 53°32' E 009°55'0 0.0
2015-May-16 02:33N 53°32' E 009°55'0 0.0
2015-May-16 01:33N 53°32' E 009°55'0 0.0
2015-May-16 00:33N 53°32' E 009°55'0 0.0
2015-May-15 23:34N 53°32' E 009°55'0 0.0
2015-May-15 22:33N 53°32' E 009°55'0 0.0
2015-May-15 21:33N 53°32' E 009°55'0 0.0
2015-May-15 20:33N 53°32' E 009°55'0 0.0
2015-May-15 19:29N 53°32' E 009°55'0 0.0
2015-May-15 18:33N 53°32' E 009°55'0 0.0
2015-May-15 17:33N 53°32' E 009°55'0 0.0
2015-May-15 16:33N 53°32' E 009°55'0 0.0
2015-May-15 15:32N 53°32' E 009°55'0 0.0
2015-May-15 14:33N 53°32' E 009°55'0 0.0
2015-May-15 13:33N 53°32' E 009°55'0 0.0
2015-May-15 12:32N 53°32' E 009°55'4 4.2
2015-May-15 11:33N 53°33' E 009°49'1110.9
2015-May-15 10:33N 53°38' E 009°32'1313.3
2015-May-15 09:34N 53°49' E 009°22'1211.7
2015-May-15 08:34N 53°52' E 009°02'1312.7
2015-May-15 07:33N 53°54' E 008°41'1413.9
2015-May-15 06:33N 53°59' E 008°19'10 9.9
2015-May-15 05:33N 53°58' E 008°02'1313.1
2015-May-15 04:33N 53°55' E 007°41'1413.7
2015-May-15 03:33N 53°52' E 007°18'3517.4
2015-May-15 01:33N 53°45' E 006°20'1717.5
2015-May-15 00:33N 53°40' E 005°52'1817.6
2015-May-14 23:33N 53°34' E 005°24'1717.4
2015-May-14 22:33N 53°27' E 004°58'1616.0
2015-May-14 21:33N 53°16' E 004°38'1717.2
2015-May-14 20:33N 53°02' E 004°21'1716.8
2015-May-14 19:33N 52°46' E 004°11'1716.6
2015-May-14 18:33N 52°33' E 003°55'1616.4
2015-May-14 17:33N 52°16' E 003°52'1414.4
2015-May-14 16:33N 52°02' E 003°53'1211.6
2015-May-14 15:33N 51°57' E 004°10'9 9.0
2015-May-14 14:33N 51°54' E 004°24'1 0.9
2015-May-14 13:31N 51°53' E 004°24'0 0.0
2015-May-14 12:31N 51°53' E 004°24'0 0.0
2015-May-14 11:31N 51°53' E 004°24'0 0.0
2015-May-14 10:31N 51°53' E 004°24'0 0.0
2015-May-14 09:31N 51°53' E 004°24'0 0.0
2015-May-14 08:31N 51°53' E 004°24'0 0.0
2015-May-14 07:31N 51°53' E 004°24'0 0.0
2015-May-14 06:31N 51°53' E 004°24'0 0.0
2015-May-14 05:31N 51°53' E 004°24'0 0.0
2015-May-14 04:31N 51°53' E 004°24'0 0.0
2015-May-14 03:31N 51°53' E 004°24'0 0.0
2015-May-14 02:31N 51°53' E 004°24'0 0.0
2015-May-14 01:31N 51°53' E 004°24'0 0.0
2015-May-14 00:31N 51°53' E 004°24'0 0.0
2015-May-13 23:31N 51°53' E 004°24'0 0.0
2015-May-13 22:31N 51°53' E 004°24'0 0.0
2015-May-13 21:31N 51°53' E 004°24'0 0.0
2015-May-13 20:31N 51°53' E 004°24'0 0.0
2015-May-13 18:31N 51°53' E 004°24'0 0.0
2015-May-13 17:31N 51°53' E 004°24'0 0.0
2015-May-13 16:31N 51°53' E 004°24'0 0.0
2015-May-13 15:33N 51°53' E 004°24'1 1.4
2015-May-13 14:33N 51°54' E 004°23'7 6.6
2015-May-13 13:33N 51°56' E 004°12'9 9.4
2015-May-13 12:33N 52°00' E 003°59'1211.5
2015-May-13 11:33N 51°58' E 003°40'1313.1
2015-May-13 10:32N 51°54' E 003°20'1616.7
2015-May-13 09:33N 51°50' E 002°54'1818.2
2015-May-13 08:33N 51°39' E 002°30'1818.3
2015-May-13 07:33N 51°25' E 002°12'1817.6
2015-May-13 06:33N 51°11' E 001°54'  

Dump ship's entire track history